Time;durP1;ratioP1;P1;durP2;ratioP2;P2;SDS_P1;SDS_P2;PMS_P1;PMS_P2;Temp;Humidity;BMP_temperature;BMP_pressure;BME280_temperature;BME280_humidity;BME280_pressure;Samples;Min_cycle;Max_cycle;Signal;HPM_P1;HPM_P2
2022/07/10 00:01:32;;;;;;;13.13;9.10;;;;;;;;;;4178299;34;20229;-67
2022/07/10 00:32:25;;;;;;;10.50;7.82;;;;;;;;;;4647668;28;20124;-66
2022/07/10 00:34:51;;;;;;;9.38;7.97;;;;;;;;;;4191852;34;20612;-66
2022/07/10 00:37:18;;;;;;;37.67;9.30;;;;;;;;;;4191875;34;20110;-66
2022/07/10 00:39:44;;;;;;;31.45;9.27;;;;;;;;;;4191874;34;20126;-66
2022/07/10 00:42:13;;;;;;;20.08;8.75;;;;;;;;;;4191802;34;20197;-67
2022/07/10 00:44:40;;;;;;;25.80;8.73;;;;;;;;;;4191681;34;20118;-67
2022/07/10 00:47:07;;;;;;;30.65;9.65;;;;;;;;;;4191677;34;20530;-70
2022/07/10 00:49:34;;;;;;;19.30;11.30;;;;;;;;;;4167064;34;20122;-71
2022/07/10 00:52:01;;;;;;;13.32;7.85;;;;;;;;;;4178967;34;20110;-71
2022/07/10 00:54:29;;;;;;;10.55;8.43;;;;;;;;;;4179048;34;20563;-71
2022/07/10 00:56:55;;;;;;;66.00;37.53;;;;;;;;;;4178803;34;20526;-71
2022/07/10 00:59:22;;;;;;;21.67;9.15;;;;;;;;;;4191795;34;20116;-72
2022/07/10 01:01:50;;;;;;;13.45;9.98;;;;;;;;;;4167517;34;20114;-71
2022/07/10 01:04:16;;;;;;;15.63;8.80;;;;;;;;;;4167454;34;20122;-71
2022/07/10 01:06:42;;;;;;;11.93;9.30;;;;;;;;;;4179004;34;20125;-71
2022/07/10 01:09:08;;;;;;;10.75;8.75;;;;;;;;;;4167211;34;20205;-71
2022/07/10 01:11:34;;;;;;;12.25;8.88;;;;;;;;;;4178671;34;20149;-71
2022/07/10 01:14:01;;;;;;;16.90;8.60;;;;;;;;;;4191472;34;20134;-71
2022/07/10 01:16:27;;;;;;;18.33;10.15;;;;;;;;;;4178615;34;20459;-71
2022/07/10 01:18:53;;;;;;;13.80;9.35;;;;;;;;;;4191603;34;20113;-71
2022/07/10 01:21:26;;;;;;;14.87;9.65;;;;;;;;;;4178554;34;20122;-71
2022/07/10 01:23:52;;;;;;;23.27;13.95;;;;;;;;;;4191485;34;20102;-71
2022/07/10 01:26:20;;;;;;;21.92;14.00;;;;;;;;;;4156094;34;20105;-71
2022/07/10 01:28:49;;;;;;;21.33;13.68;;;;;;;;;;4178667;34;20109;-71
2022/07/10 01:31:15;;;;;;;20.58;13.90;;;;;;;;;;4178522;34;20110;-71
2022/07/10 01:33:41;;;;;;;22.73;14.60;;;;;;;;;;4178482;34;20099;-71
2022/07/10 01:36:07;;;;;;;24.35;14.07;;;;;;;;;;4191264;34;20120;-71
2022/07/10 01:38:33;;;;;;;20.90;13.88;;;;;;;;;;4191199;34;20125;-72
2022/07/10 01:40:59;;;;;;;23.25;15.45;;;;;;;;;;4191173;34;20514;-72
2022/07/10 01:43:25;;;;;;;26.58;14.52;;;;;;;;;;4191410;34;20110;-72
2022/07/10 01:45:51;;;;;;;25.25;15.05;;;;;;;;;;4191186;34;20549;-72
2022/07/10 01:48:17;;;;;;;28.62;14.93;;;;;;;;;;4178477;34;20180;-72
2022/07/10 01:50:43;;;;;;;21.05;14.82;;;;;;;;;;4191122;34;20141;-72
2022/07/10 01:53:10;;;;;;;26.00;13.95;;;;;;;;;;4191017;34;20132;-72
2022/07/10 01:55:37;;;;;;;19.25;11.27;;;;;;;;;;4191197;34;20545;-72
2022/07/10 01:58:03;;;;;;;21.55;13.50;;;;;;;;;;4178266;34;20611;-67
2022/07/10 02:00:29;;;;;;;21.05;13.88;;;;;;;;;;4191040;34;20119;-67
2022/07/10 02:05:39;;;;;;;18.55;11.85;;;;;;;;;;4191278;34;20093;-67
2022/07/10 02:08:06;;;;;;;27.05;13.43;;;;;;;;;;4191105;34;20102;-68
2022/07/10 02:10:32;;;;;;;18.90;12.43;;;;;;;;;;4178316;34;20489;-67
2022/07/10 02:12:58;;;;;;;18.27;14.27;;;;;;;;;;4178002;34;20110;-68
2022/07/10 02:15:24;;;;;;;31.10;14.73;;;;;;;;;;4190863;34;20145;-67
2022/07/10 02:17:50;;;;;;;19.77;14.32;;;;;;;;;;4190893;34;20109;-67
2022/07/10 02:20:16;;;;;;;23.62;14.27;;;;;;;;;;4190796;34;20540;-67
2022/07/10 02:22:42;;;;;;;26.08;15.05;;;;;;;;;;4191021;34;20260;-67
2022/07/10 02:25:08;;;;;;;19.27;14.70;;;;;;;;;;4166550;34;20133;-67
2022/07/10 02:27:34;;;;;;;23.23;13.57;;;;;;;;;;4190700;34;20453;-67
2022/07/10 02:30:00;;;;;;;23.70;14.20;;;;;;;;;;4178121;34;20132;-67
2022/07/10 02:32:26;;;;;;;21.58;12.75;;;;;;;;;;4190803;34;20110;-67
2022/07/10 02:34:53;;;;;;;24.60;14.55;;;;;;;;;;4190773;34;20225;-67
2022/07/10 02:37:19;;;;;;;29.10;14.48;;;;;;;;;;4190746;34;20089;-67
2022/07/10 02:39:45;;;;;;;24.95;14.00;;;;;;;;;;4190719;34;20114;-67
2022/07/10 02:42:11;;;;;;;23.95;13.57;;;;;;;;;;4177843;34;20128;-68
2022/07/10 02:44:37;;;;;;;23.70;13.35;;;;;;;;;;4177655;34;20215;-67
2022/07/10 02:47:03;;;;;;;22.00;14.52;;;;;;;;;;4178053;34;20106;-67
2022/07/10 02:49:29;;;;;;;27.05;15.52;;;;;;;;;;4190465;34;20529;-67
2022/07/10 02:51:55;;;;;;;21.52;14.18;;;;;;;;;;4190667;34;20121;-67
2022/07/10 02:54:21;;;;;;;18.27;12.85;;;;;;;;;;4190543;34;20129;-67
2022/07/10 02:56:47;;;;;;;21.30;13.20;;;;;;;;;;4190503;34;20153;-67
2022/07/10 02:59:13;;;;;;;20.25;12.90;;;;;;;;;;4190463;34;20478;-67
2022/07/10 03:01:39;;;;;;;17.75;10.15;;;;;;;;;;4190486;34;20098;-67
2022/07/10 03:04:05;;;;;;;17.45;11.10;;;;;;;;;;4190758;34;20214;-67
2022/07/10 03:06:31;;;;;;;16.30;10.35;;;;;;;;;;4190369;34;20114;-67
2022/07/10 03:08:57;;;;;;;16.15;10.93;;;;;;;;;;4190481;34;20118;-67
2022/07/10 03:11:23;;;;;;;14.82;10.32;;;;;;;;;;4190547;34;20094;-67
2022/07/10 03:13:49;;;;;;;15.85;11.23;;;;;;;;;;4191188;34;20134;-66
2022/07/10 03:16:15;;;;;;;11.85;9.23;;;;;;;;;;4192601;34;20114;-67
2022/07/10 03:18:41;;;;;;;16.23;10.77;;;;;;;;;;4192498;34;20120;-67
2022/07/10 03:21:07;;;;;;;17.52;10.43;;;;;;;;;;4192270;34;20129;-67
2022/07/10 03:23:33;;;;;;;15.73;10.45;;;;;;;;;;4192308;34;20218;-66
2022/07/10 03:25:59;;;;;;;13.82;9.63;;;;;;;;;;4192323;34;20233;-67
2022/07/10 03:28:25;;;;;;;13.50;10.30;;;;;;;;;;4192278;34;20753;-67
2022/07/10 03:30:51;;;;;;;17.80;11.15;;;;;;;;;;4192253;34;20130;-67
2022/07/10 03:33:17;;;;;;;11.60;9.43;;;;;;;;;;4192154;34;20213;-67
2022/07/10 03:35:43;;;;;;;14.82;10.18;;;;;;;;;;4192524;34;20157;-66
2022/07/10 03:38:09;;;;;;;15.13;10.35;;;;;;;;;;4179738;34;20110;-67
2022/07/10 03:40:35;;;;;;;14.27;9.65;;;;;;;;;;4192238;34;20209;-67
2022/07/10 03:43:01;;;;;;;10.98;8.57;;;;;;;;;;4192289;34;20126;-67
2022/07/10 03:45:27;;;;;;;16.40;10.27;;;;;;;;;;4192256;34;20204;-67
2022/07/10 03:47:53;;;;;;;11.48;9.05;;;;;;;;;;4179502;34;20458;-67
2022/07/10 03:50:19;;;;;;;13.70;9.88;;;;;;;;;;4167761;34;20486;-67
2022/07/10 03:52:46;;;;;;;13.38;9.32;;;;;;;;;;4179439;34;20125;-67
2022/07/10 03:55:12;;;;;;;17.02;9.98;;;;;;;;;;4192189;34;20521;-67
2022/07/10 03:57:53;;;;;;;16.98;9.85;;;;;;;;;;4192373;34;20110;-68
2022/07/10 04:00:21;;;;;;;13.80;8.45;;;;;;;;;;4179483;34;20782;-67
2022/07/10 04:02:49;;;;;;;9.93;8.93;;;;;;;;;;4192120;34;20126;-67
2022/07/10 04:05:15;;;;;;;11.88;9.05;;;;;;;;;;4192045;34;20117;-67
2022/07/10 04:07:41;;;;;;;15.63;9.88;;;;;;;;;;4192130;34;20210;-67
2022/07/10 04:10:07;;;;;;;12.02;9.85;;;;;;;;;;4179190;34;20556;-67
2022/07/10 04:12:33;;;;;;;14.18;9.65;;;;;;;;;;4192012;34;21208;-67
2022/07/10 04:14:59;;;;;;;13.98;9.52;;;;;;;;;;4179225;34;20118;-67
2022/07/10 04:17:25;;;;;;;13.13;10.23;;;;;;;;;;4191849;34;20126;-67
2022/07/10 04:19:51;;;;;;;12.80;11.10;;;;;;;;;;4191957;34;20474;-67
2022/07/10 04:22:17;;;;;;;12.60;10.07;;;;;;;;;;4191775;34;20120;-67
2022/07/10 04:24:43;;;;;;;17.10;9.85;;;;;;;;;;4179271;34;20540;-67
2022/07/10 04:27:09;;;;;;;16.12;9.15;;;;;;;;;;4179255;34;20466;-67
2022/07/10 04:29:35;;;;;;;12.85;9.30;;;;;;;;;;4191742;34;20291;-67
2022/07/10 04:32:01;;;;;;;12.15;9.13;;;;;;;;;;4191631;34;20233;-67
2022/07/10 04:34:27;;;;;;;12.45;9.07;;;;;;;;;;4191996;34;20105;-68
2022/07/10 04:36:53;;;;;;;13.70;8.40;;;;;;;;;;4179120;34;20428;-67
2022/07/10 04:39:19;;;;;;;13.30;9.70;;;;;;;;;;4191689;34;20125;-67
2022/07/10 04:41:45;;;;;;;9.38;6.93;;;;;;;;;;4191655;34;20118;-67
2022/07/10 04:44:11;;;;;;;12.60;7.30;;;;;;;;;;4191646;34;20533;-67
2022/07/10 04:46:37;;;;;;;10.13;7.53;;;;;;;;;;4191531;34;20439;-67
2022/07/10 04:49:03;;;;;;;10.77;6.90;;;;;;;;;;4191599;34;20166;-67
2022/07/10 04:51:30;;;;;;;13.80;6.32;;;;;;;;;;4191893;34;20432;-68
2022/07/10 04:53:56;;;;;;;8.30;6.72;;;;;;;;;;4191631;34;20093;-67
2022/07/10 04:56:22;;;;;;;12.23;6.30;;;;;;;;;;4191489;34;20540;-67
2022/07/10 04:58:48;;;;;;;8.88;6.85;;;;;;;;;;4191540;34;20125;-67
2022/07/10 05:01:14;;;;;;;7.93;5.40;;;;;;;;;;4178734;34;20110;-68
2022/07/10 05:03:40;;;;;;;7.50;5.70;;;;;;;;;;4191490;34;20110;-67
2022/07/10 05:06:06;;;;;;;9.48;4.93;;;;;;;;;;4191485;34;20136;-67
2022/07/10 05:08:32;;;;;;;11.18;5.60;;;;;;;;;;4191583;34;20550;-67
2022/07/10 05:10:58;;;;;;;6.78;5.53;;;;;;;;;;4178955;34;20126;-68
2022/07/10 05:13:24;;;;;;;4.87;4.37;;;;;;;;;;4191357;34;20552;-67
2022/07/10 05:15:50;;;;;;;7.43;5.47;;;;;;;;;;4191643;34;20222;-67
2022/07/10 05:18:16;;;;;;;7.55;5.28;;;;;;;;;;4191329;34;20599;-67
2022/07/10 05:20:43;;;;;;;7.90;5.55;;;;;;;;;;4191554;34;20121;-67
2022/07/10 05:23:10;;;;;;;5.05;4.40;;;;;;;;;;4191679;34;20206;-67
2022/07/10 05:25:37;;;;;;;11.02;5.50;;;;;;;;;;4178598;34;20130;-68
2022/07/10 05:28:06;;;;;;;9.73;4.43;;;;;;;;;;4191490;34;20098;-67
2022/07/10 05:30:32;;;;;;;7.20;4.15;;;;;;;;;;4191270;34;20134;-68
2022/07/10 05:32:58;;;;;;;7.57;4.30;;;;;;;;;;4191137;34;20219;-67
2022/07/10 05:35:24;;;;;;;5.22;4.57;;;;;;;;;;4178741;34;20127;-68
2022/07/10 05:37:50;;;;;;;4.20;3.80;;;;;;;;;;4190820;34;20522;-68
2022/07/10 05:40:16;;;;;;;4.78;3.58;;;;;;;;;;4191299;34;20110;-67
2022/07/10 05:42:43;;;;;;;4.45;3.47;;;;;;;;;;4178521;34;20538;-68
2022/07/10 05:45:10;;;;;;;5.15;4.43;;;;;;;;;;4191252;34;20114;-68
2022/07/10 05:47:36;;;;;;;6.18;4.43;;;;;;;;;;4178583;34;20193;-67
2022/07/10 05:50:03;;;;;;;9.60;4.85;;;;;;;;;;4191308;34;20129;-67
2022/07/10 05:52:29;;;;;;;6.93;4.25;;;;;;;;;;4178652;34;20117;-68
2022/07/10 05:54:58;;;;;;;6.53;4.43;;;;;;;;;;4191390;34;20133;-68
2022/07/10 05:57:24;;;;;;;5.55;4.15;;;;;;;;;;4190974;34;20553;-67
2022/07/10 05:59:50;;;;;;;5.00;3.90;;;;;;;;;;4191218;34;20146;-67
2022/07/10 06:02:16;;;;;;;5.95;4.37;;;;;;;;;;4190999;34;20198;-68
2022/07/10 06:04:42;;;;;;;5.53;3.87;;;;;;;;;;4191305;34;20539;-68
2022/07/10 06:07:08;;;;;;;5.35;3.90;;;;;;;;;;4191241;34;20113;-68
2022/07/10 06:09:35;;;;;;;6.53;4.20;;;;;;;;;;4191010;34;20146;-68
2022/07/10 06:12:01;;;;;;;7.60;4.28;;;;;;;;;;4190960;34;20193;-68
2022/07/10 06:14:27;;;;;;;6.18;4.18;;;;;;;;;;4191190;34;20216;-68
2022/07/10 06:16:53;;;;;;;7.75;4.40;;;;;;;;;;4190940;34;20125;-67
2022/07/10 06:19:19;;;;;;;7.45;4.60;;;;;;;;;;4191049;34;20241;-68
2022/07/10 06:21:45;;;;;;;5.22;3.97;;;;;;;;;;4190783;34;20156;-69
2022/07/10 06:24:11;;;;;;;6.78;4.22;;;;;;;;;;4190798;34;20143;-69
2022/07/10 06:26:37;;;;;;;7.95;4.82;;;;;;;;;;4190827;34;20118;-68
2022/07/10 06:29:03;;;;;;;8.60;5.30;;;;;;;;;;4190749;34;20128;-67
2022/07/10 06:31:29;;;;;;;6.93;4.40;;;;;;;;;;4190690;34;20117;-67
2022/07/10 06:33:55;;;;;;;7.43;4.60;;;;;;;;;;4190901;34;20111;-68
2022/07/10 06:36:21;;;;;;;5.65;4.00;;;;;;;;;;4190921;34;20122;-67
2022/07/10 06:38:47;;;;;;;9.02;5.22;;;;;;;;;;4177913;34;20141;-67
2022/07/10 06:41:13;;;;;;;4.55;3.70;;;;;;;;;;4190676;34;20165;-67
2022/07/10 06:43:39;;;;;;;14.63;4.35;;;;;;;;;;4177809;34;20450;-67
2022/07/10 06:46:05;;;;;;;6.97;4.25;;;;;;;;;;4177781;34;20125;-67
2022/07/10 06:48:32;;;;;;;9.82;4.35;;;;;;;;;;4191168;34;20117;-67
2022/07/10 06:50:58;;;;;;;5.80;4.25;;;;;;;;;;4179794;34;20094;-67
2022/07/10 06:53:26;;;;;;;10.15;5.05;;;;;;;;;;4192536;34;20160;-67
2022/07/10 06:55:53;;;;;;;5.37;4.68;;;;;;;;;;4192544;34;20208;-67
2022/07/10 06:58:19;;;;;;;7.25;5.50;;;;;;;;;;4192726;34;20114;-68
2022/07/10 07:00:45;;;;;;;8.80;5.25;;;;;;;;;;4179690;34;20139;-68
2022/07/10 07:03:11;;;;;;;8.73;5.18;;;;;;;;;;4192606;34;20534;-68
2022/07/10 07:05:38;;;;;;;6.93;4.65;;;;;;;;;;4192519;34;20122;-68
2022/07/10 07:08:04;;;;;;;11.02;6.28;;;;;;;;;;4179918;34;20180;-68
2022/07/10 07:10:30;;;;;;;10.02;5.65;;;;;;;;;;4192462;34;20109;-68
2022/07/10 07:12:56;;;;;;;12.80;7.90;;;;;;;;;;4179563;34;20214;-68
2022/07/10 07:15:23;;;;;;;20.33;8.20;;;;;;;;;;4192384;34;20126;-68
2022/07/10 07:18:11;;;;;;;11.88;6.57;;;;;;;;;;4192413;34;20102;-68
2022/07/10 07:23:22;;;;;;;14.03;6.13;;;;;;;;;;4179689;34;20436;-68
2022/07/10 07:25:48;;;;;;;14.43;6.62;;;;;;;;;;4179527;34;20102;-68
2022/07/10 07:28:19;;;;;;;5.90;4.45;;;;;;;;;;4192268;34;20109;-68
2022/07/10 07:30:46;;;;;;;10.27;7.43;;;;;;;;;;4192348;34;20114;-68
2022/07/10 07:33:13;;;;;;;8.18;5.85;;;;;;;;;;4192151;34;20167;-68
2022/07/10 07:35:39;;;;;;;9.73;6.30;;;;;;;;;;4179474;34;20140;-68
2022/07/10 07:38:05;;;;;;;9.40;6.57;;;;;;;;;;4192385;34;20098;-68
2022/07/10 07:40:32;;;;;;;11.75;5.65;;;;;;;;;;4192319;34;20548;-68
2022/07/10 07:42:58;;;;;;;10.68;6.05;;;;;;;;;;4179602;34;20118;-68
2022/07/10 07:45:25;;;;;;;14.45;7.62;;;;;;;;;;4192167;34;20216;-68
2022/07/10 07:47:56;;;;;;;4.75;4.10;;;;;;;;;;4192156;34;20110;-68
2022/07/10 07:50:25;;;;;;;2.45;2.03;;;;;;;;;;4179335;34;20128;-68
2022/07/10 07:52:52;;;;;;;7.45;5.15;;;;;;;;;;4192074;34;20193;-69
2022/07/10 07:55:19;;;;;;;5.43;3.35;;;;;;;;;;4192119;34;20197;-68
2022/07/10 07:57:45;;;;;;;7.32;4.45;;;;;;;;;;4192170;34;20246;-69
2022/07/10 08:00:12;;;;;;;8.70;6.05;;;;;;;;;;4167567;34;20126;-69
2022/07/10 08:02:39;;;;;;;7.18;5.47;;;;;;;;;;4179307;34;20206;-69
2022/07/10 08:05:06;;;;;;;2.87;2.40;;;;;;;;;;4192240;34;20133;-69
2022/07/10 08:07:38;;;;;;;3.30;2.62;;;;;;;;;;4192085;34;20126;-68
2022/07/10 08:10:05;;;;;;;5.40;3.78;;;;;;;;;;4191999;34;20129;-69
2022/07/10 08:12:31;;;;;;;10.65;5.45;;;;;;;;;;4179387;34;20118;-69
2022/07/10 08:14:58;;;;;;;9.43;6.37;;;;;;;;;;4179128;34;20630;-68
2022/07/10 08:17:24;;;;;;;6.20;4.15;;;;;;;;;;4191854;34;20094;-69
2022/07/10 08:19:50;;;;;;;12.07;6.05;;;;;;;;;;4191871;34;20110;-69
2022/07/10 08:22:16;;;;;;;7.72;6.47;;;;;;;;;;4191762;34;20137;-68
2022/07/10 08:24:42;;;;;;;12.37;8.05;;;;;;;;;;4192097;34;20274;-68
2022/07/10 08:27:08;;;;;;;1.05;1.05;;;;;;;;;;4178936;34;20129;-69
2022/07/10 08:29:34;;;;;;;12.37;7.40;;;;;;;;;;4191728;34;20214;-69
2022/07/10 08:32:00;;;;;;;1.73;1.62;;;;;;;;;;4191628;34;20608;-68
2022/07/10 08:34:27;;;;;;;6.70;5.47;;;;;;;;;;4191806;34;20180;-69
2022/07/10 08:36:54;;;;;;;7.50;6.07;;;;;;;;;;4191608;34;20217;-68
2022/07/10 08:39:22;;;;;;;8.75;5.07;;;;;;;;;;4178926;34;20142;-66
2022/07/10 08:41:51;;;;;;;1.83;1.73;;;;;;;;;;4178906;34;20532;-66
2022/07/10 08:44:17;;;;;;;3.87;2.97;;;;;;;;;;4179504;34;20098;-68
2022/07/10 08:46:44;;;;;;;1.75;1.65;;;;;;;;;;4191658;34;20102;-66
2022/07/10 08:49:11;;;;;;;3.87;2.90;;;;;;;;;;4179056;34;20114;-67
2022/07/10 08:51:41;;;;;;;8.00;4.62;;;;;;;;;;4178686;34;20118;-67
2022/07/10 08:54:08;;;;;;;6.62;4.93;;;;;;;;;;4167480;34;20121;-67
2022/07/10 08:56:35;;;;;;;9.43;4.60;;;;;;;;;;4191538;34;20510;-67
2022/07/10 08:59:04;;;;;;;14.48;4.78;;;;;;;;;;4167854;34;20113;-67
2022/07/10 09:01:30;;;;;;;8.77;4.68;;;;;;;;;;4178909;34;20130;-67
2022/07/10 09:03:56;;;;;;;11.70;5.15;;;;;;;;;;4178771;34;20192;-67
2022/07/10 09:06:22;;;;;;;9.88;4.57;;;;;;;;;;4178670;34;20145;-67
2022/07/10 09:09:04;;;;;;;6.25;5.03;;;;;;;;;;4178648;34;20545;-67
2022/07/10 09:11:30;;;;;;;8.57;5.07;;;;;;;;;;4177921;34;20141;-67
2022/07/10 09:13:59;;;;;;;3.53;2.75;;;;;;;;;;4191659;34;20118;-69
2022/07/10 09:16:29;;;;;;;6.37;4.87;;;;;;;;;;4191407;34;20570;-68
2022/07/10 09:18:56;;;;;;;6.37;3.78;;;;;;;;;;4167658;34;20194;-69
2022/07/10 09:21:22;;;;;;;6.50;4.62;;;;;;;;;;4178437;34;20114;-69
2022/07/10 09:23:49;;;;;;;7.28;5.22;;;;;;;;;;4191035;34;20118;-69
2022/07/10 09:26:15;;;;;;;8.50;5.10;;;;;;;;;;4191255;34;20141;-68
2022/07/10 09:28:41;;;;;;;3.55;2.75;;;;;;;;;;4191451;34;20117;-69
2022/07/10 09:31:07;;;;;;;4.53;3.78;;;;;;;;;;4191302;34;20214;-69
2022/07/10 09:33:35;;;;;;;6.30;4.95;;;;;;;;;;4178314;34;20141;-69
2022/07/10 09:36:10;;;;;;;11.18;5.20;;;;;;;;;;4191134;34;20098;-68
2022/07/10 09:38:39;;;;;;;6.60;4.90;;;;;;;;;;4178331;34;20102;-69
2022/07/10 09:41:16;;;;;;;6.12;5.47;;;;;;;;;;4191254;34;20230;-69
2022/07/10 09:43:46;;;;;;;8.45;4.65;;;;;;;;;;4167321;34;20125;-68
2022/07/10 09:46:12;;;;;;;5.53;4.03;;;;;;;;;;4191162;34;20114;-68
2022/07/10 09:48:38;;;;;;;10.30;4.37;;;;;;;;;;4191344;34;20153;-68
2022/07/10 09:51:09;;;;;;;6.93;3.40;;;;;;;;;;4190997;34;20214;-68
2022/07/10 09:53:39;;;;;;;6.50;4.75;;;;;;;;;;4178223;34;20533;-68
2022/07/10 09:56:08;;;;;;;6.47;4.70;;;;;;;;;;4178714;34;20106;-68
2022/07/10 09:58:37;;;;;;;4.68;3.75;;;;;;;;;;4191114;34;20209;-68
2022/07/10 10:01:07;;;;;;;4.18;3.78;;;;;;;;;;4178597;34;20317;-68
2022/07/10 10:03:35;;;;;;;6.03;4.37;;;;;;;;;;4191067;34;20097;-68
2022/07/10 10:06:21;;;;;;;4.43;3.25;;;;;;;;;;4178277;34;20109;-68
2022/07/10 10:09:08;;;;;;;1.08;1.08;;;;;;;;;;4177854;34;20105;-68
2022/07/10 10:11:39;;;;;;;3.87;3.03;;;;;;;;;;4191031;34;20451;-68
2022/07/10 10:14:07;;;;;;;10.25;4.28;;;;;;;;;;4178321;34;20517;-68
2022/07/10 10:16:33;;;;;;;5.18;3.28;;;;;;;;;;4191090;34;20099;-67
2022/07/10 10:21:44;;;;;;;7.70;4.17;;;;;;;;;;4179850;34;20559;-68
2022/07/10 10:24:11;;;;;;;5.50;3.80;;;;;;;;;;4178344;34;20125;-68
2022/07/10 10:26:37;;;;;;;4.55;3.10;;;;;;;;;;4190647;34;20114;-68
2022/07/10 10:29:04;;;;;;;4.03;2.85;;;;;;;;;;4190704;34;20325;-67
2022/07/10 10:31:31;;;;;;;4.78;3.00;;;;;;;;;;4190996;34;20203;-68
2022/07/10 10:33:59;;;;;;;3.65;3.10;;;;;;;;;;4166858;34;20106;-68
2022/07/10 10:36:45;;;;;;;2.90;2.17;;;;;;;;;;4177962;34;20098;-68
2022/07/10 10:39:16;;;;;;;3.00;2.70;;;;;;;;;;4190599;34;20201;-68
2022/07/10 10:41:46;;;;;;;4.37;2.67;;;;;;;;;;4190622;34;20114;-68
2022/07/10 10:44:18;;;;;;;7.65;2.90;;;;;;;;;;4177942;34;20202;-66
2022/07/10 10:46:50;;;;;;;4.78;3.10;;;;;;;;;;4190819;34;20234;-66
2022/07/10 10:49:18;;;;;;;3.10;2.80;;;;;;;;;;4190550;34;20142;-66
2022/07/10 10:52:01;;;;;;;2.65;2.37;;;;;;;;;;4190398;34;20123;-66
2022/07/10 10:54:28;;;;;;;4.72;3.80;;;;;;;;;;4190536;34;20225;-66
2022/07/10 10:57:16;;;;;;;9.52;3.90;;;;;;;;;;4190700;34;20141;-67
2022/07/10 10:59:49;;;;;;;4.00;3.20;;;;;;;;;;4190455;34;20128;-67
2022/07/10 11:02:41;;;;;;;2.72;2.17;;;;;;;;;;4177641;34;20222;-66
2022/07/10 11:05:23;;;;;;;8.88;3.65;;;;;;;;;;4178592;34;20106;-66
2022/07/10 11:07:59;;;;;;;4.35;3.20;;;;;;;;;;4190433;34;20217;-67
2022/07/10 11:10:29;;;;;;;2.95;2.65;;;;;;;;;;4190474;34;20096;-67
2022/07/10 11:13:01;;;;;;;3.70;2.83;;;;;;;;;;4177769;34;20099;-66
2022/07/10 11:15:30;;;;;;;9.98;3.45;;;;;;;;;;4190475;34;20119;-66
2022/07/10 11:17:57;;;;;;;3.67;3.03;;;;;;;;;;4190165;34;20121;-67
2022/07/10 11:20:23;;;;;;;6.03;3.12;;;;;;;;;;4190250;34;20112;-66
2022/07/10 11:23:06;;;;;;;7.47;2.65;;;;;;;;;;4190266;34;20130;-66
2022/07/10 11:25:44;;;;;;;9.10;2.90;;;;;;;;;;4177466;34;20090;-66
2022/07/10 11:28:12;;;;;;;3.80;3.00;;;;;;;;;;4190322;34;20440;-67
2022/07/10 11:30:55;;;;;;;4.10;3.35;;;;;;;;;;4189909;34;20182;-67
2022/07/10 11:33:21;;;;;;;3.30;3.00;;;;;;;;;;4177551;34;20428;-67
2022/07/10 11:35:50;;;;;;;3.60;2.60;;;;;;;;;;4167672;34;20114;-68
2022/07/10 11:38:24;;;;;;;2.53;2.12;;;;;;;;;;4179558;34;20198;-67
2022/07/10 11:40:52;;;;;;;5.40;2.67;;;;;;;;;;4192252;34;20455;-67
2022/07/10 11:43:22;;;;;;;7.43;3.17;;;;;;;;;;4192248;34;20517;-67
2022/07/10 11:45:48;;;;;;;4.22;3.05;;;;;;;;;;4192122;34;20122;-67
2022/07/10 11:48:21;;;;;;;7.68;3.37;;;;;;;;;;4179330;34;20129;-67
2022/07/10 11:50:47;;;;;;;3.03;2.72;;;;;;;;;;4192099;34;20187;-67
2022/07/10 11:53:13;;;;;;;3.87;3.00;;;;;;;;;;4192289;34;20098;-67
2022/07/10 11:55:40;;;;;;;5.70;3.20;;;;;;;;;;4192186;34;20302;-67
2022/07/10 11:58:16;;;;;;;5.30;3.15;;;;;;;;;;4179323;34;20179;-67
2022/07/10 12:00:43;;;;;;;3.78;3.37;;;;;;;;;;4192399;34;20434;-67
2022/07/10 12:03:18;;;;;;;5.15;2.65;;;;;;;;;;4192061;34;20118;-67
2022/07/10 12:05:45;;;;;;;2.22;1.67;;;;;;;;;;4192367;34;20094;-68
2022/07/10 12:08:13;;;;;;;0.82;0.82;;;;;;;;;;4191863;34;20517;-67
2022/07/10 12:10:42;;;;;;;3.05;2.75;;;;;;;;;;4191913;34;20178;-67
2022/07/10 12:13:15;;;;;;;5.37;2.90;;;;;;;;;;4179189;34;20118;-67
2022/07/10 12:15:45;;;;;;;3.15;2.62;;;;;;;;;;4192211;34;20106;-68
2022/07/10 12:18:19;;;;;;;2.78;2.40;;;;;;;;;;4167931;34;20105;-68
2022/07/10 12:20:47;;;;;;;2.62;2.42;;;;;;;;;;4191888;34;20090;-68
2022/07/10 12:23:17;;;;;;;2.70;2.47;;;;;;;;;;4167851;34;20106;-67
2022/07/10 12:25:44;;;;;;;4.05;3.00;;;;;;;;;;4156593;34;20110;-68
2022/07/10 12:28:12;;;;;;;5.45;3.70;;;;;;;;;;4168128;34;20103;-68
2022/07/10 12:30:41;;;;;;;5.40;3.75;;;;;;;;;;4179535;34;20110;-68
2022/07/10 12:33:18;;;;;;;3.45;3.12;;;;;;;;;;4179505;34;20627;-66
2022/07/10 12:35:58;;;;;;;3.12;2.83;;;;;;;;;;4192008;34;20483;-67
2022/07/10 12:38:27;;;;;;;3.35;3.05;;;;;;;;;;4179390;34;20113;-68
2022/07/10 12:41:13;;;;;;;4.57;2.80;;;;;;;;;;4191819;34;20114;-68
2022/07/10 12:43:40;;;;;;;2.90;2.60;;;;;;;;;;4191885;34;20168;-68
2022/07/10 12:46:15;;;;;;;4.43;2.97;;;;;;;;;;4190928;34;20230;-68
2022/07/10 12:48:41;;;;;;;;;;;;;;;;;;4192175;34;20186;-67
2022/07/10 12:51:22;;;;;;;3.20;2.50;;;;;;;;;;4178863;34;20009;-67
2022/07/10 12:53:48;;;;;;;3.05;2.60;;;;;;;;;;4191517;34;20177;-67
2022/07/10 12:56:27;;;;;;;3.17;2.70;;;;;;;;;;4178885;34;20623;-68
2022/07/10 12:58:53;;;;;;;3.15;2.80;;;;;;;;;;4178827;34;20099;-68
2022/07/10 13:01:19;;;;;;;6.03;2.50;;;;;;;;;;4191761;34;20094;-67
2022/07/10 13:03:45;;;;;;;3.25;2.95;;;;;;;;;;4191539;34;20463;-68
2022/07/10 13:06:32;;;;;;;3.90;2.70;;;;;;;;;;4191595;34;20125;-68
2022/07/10 13:08:58;;;;;;;3.25;2.67;;;;;;;;;;4191408;34;20495;-68
2022/07/10 13:11:24;;;;;;;3.12;2.83;;;;;;;;;;4179278;34;20193;-68
2022/07/10 13:13:50;;;;;;;3.55;2.95;;;;;;;;;;4179170;34;20550;-68
2022/07/10 13:16:17;;;;;;;4.05;3.05;;;;;;;;;;4191852;34;20451;-68
2022/07/10 13:18:46;;;;;;;4.57;2.95;;;;;;;;;;4191704;34;20132;-68
2022/07/10 13:21:12;;;;;;;9.98;3.65;;;;;;;;;;4191388;34;20110;-68
2022/07/10 13:23:38;;;;;;;7.12;3.70;;;;;;;;;;4191230;34;20503;-69
2022/07/10 13:26:06;;;;;;;5.95;3.65;;;;;;;;;;4191577;34;20125;-68
2022/07/10 13:28:33;;;;;;;4.53;3.70;;;;;;;;;;4191232;34;20117;-68
2022/07/10 13:31:00;;;;;;;4.57;3.80;;;;;;;;;;4167328;34;20180;-68
2022/07/10 13:33:27;;;;;;;7.10;3.87;;;;;;;;;;4178112;34;20104;-64
2022/07/10 13:35:54;;;;;;;5.30;3.70;;;;;;;;;;4156417;34;20130;-67
2022/07/10 13:38:20;;;;;;;5.20;3.65;;;;;;;;;;4191347;34;20179;-64
2022/07/10 13:40:47;;;;;;;6.43;3.67;;;;;;;;;;4191327;34;20113;-66
2022/07/10 13:43:16;;;;;;;6.05;4.00;;;;;;;;;;4191246;34;20565;-65
2022/07/10 13:45:45;;;;;;;5.43;4.10;;;;;;;;;;4178785;34;20126;-70
2022/07/10 13:48:12;;;;;;;6.65;4.07;;;;;;;;;;4167329;34;20102;-65
2022/07/10 13:50:39;;;;;;;8.38;3.95;;;;;;;;;;4191302;34;20137;-64
2022/07/10 13:53:05;;;;;;;5.07;3.83;;;;;;;;;;4191225;34;20129;-65
2022/07/10 13:55:33;;;;;;;4.68;3.30;;;;;;;;;;4191033;34;20126;-63
2022/07/10 13:57:59;;;;;;;5.10;3.50;;;;;;;;;;4166318;34;20463;-65
2022/07/10 14:00:25;;;;;;;4.30;3.40;;;;;;;;;;4191112;34;20146;-66
2022/07/10 14:02:51;;;;;;;4.62;3.80;;;;;;;;;;4190864;34;20518;-65
2022/07/10 14:05:17;;;;;;;7.43;3.55;;;;;;;;;;4191060;34;20106;-65
2022/07/10 14:07:43;;;;;;;3.62;3.30;;;;;;;;;;4191234;34;20546;-65
2022/07/10 14:10:11;;;;;;;3.70;3.12;;;;;;;;;;4190816;34;20237;-66
2022/07/10 14:12:37;;;;;;;4.25;3.45;;;;;;;;;;4190840;34;20435;-66
2022/07/10 14:15:03;;;;;;;9.80;3.72;;;;;;;;;;4191075;34;20209;-66
2022/07/10 14:17:30;;;;;;;10.77;3.97;;;;;;;;;;4190945;34;20098;-64
2022/07/10 14:19:56;;;;;;;6.07;4.22;;;;;;;;;;4191087;34;20114;-64
2022/07/10 14:22:22;;;;;;;4.15;3.75;;;;;;;;;;4190815;34;20225;-67
2022/07/10 14:24:49;;;;;;;6.05;4.55;;;;;;;;;;4191090;34;20119;-65
2022/07/10 14:27:15;;;;;;;5.18;4.22;;;;;;;;;;4190657;34;20507;-66
2022/07/10 14:29:41;;;;;;;11.57;3.92;;;;;;;;;;4190710;34;20482;-66
2022/07/10 14:32:07;;;;;;;6.72;4.50;;;;;;;;;;4190955;34;20126;-66
2022/07/10 14:34:33;;;;;;;7.28;4.53;;;;;;;;;;4190791;34;20106;-66
2022/07/10 14:36:59;;;;;;;7.90;5.03;;;;;;;;;;4190839;34;20110;-65
2022/07/10 14:39:25;;;;;;;7.30;4.30;;;;;;;;;;4177947;34;20561;-67
2022/07/10 14:41:51;;;;;;;6.53;4.37;;;;;;;;;;4177791;34;20209;-66
2022/07/10 14:44:17;;;;;;;8.25;4.35;;;;;;;;;;4177961;34;20114;-65
2022/07/10 14:46:43;;;;;;;4.62;3.83;;;;;;;;;;4190612;34;20479;-65
2022/07/10 14:49:09;;;;;;;8.27;4.10;;;;;;;;;;4190621;34;20137;-65
2022/07/10 14:51:35;;;;;;;5.25;3.87;;;;;;;;;;4190462;34;20105;-66
2022/07/10 14:54:02;;;;;;;6.25;3.72;;;;;;;;;;4190404;34;20121;-66
2022/07/10 14:56:28;;;;;;;11.90;4.07;;;;;;;;;;4176529;34;20534;-68
2022/07/10 14:58:54;;;;;;;7.65;4.18;;;;;;;;;;4190132;34;20212;-66
2022/07/10 15:01:20;;;;;;;7.75;4.40;;;;;;;;;;4189959;34;20124;-66
2022/07/10 15:03:46;;;;;;;6.03;4.28;;;;;;;;;;4190068;34;20214;-66
2022/07/10 15:06:12;;;;;;;6.93;4.50;;;;;;;;;;4174943;34;20122;-66
2022/07/10 15:08:39;;;;;;;5.32;4.00;;;;;;;;;;4187023;34;20106;-65
2022/07/10 15:11:06;;;;;;;8.20;4.72;;;;;;;;;;4191840;34;20122;-63
2022/07/10 15:13:32;;;;;;;10.98;4.55;;;;;;;;;;4192274;34;20113;-64
2022/07/10 15:16:00;;;;;;;9.07;4.65;;;;;;;;;;4191956;34;20191;-65